createdAt,value
2023-02-08T00:02:03.774Z,31.70
2023-02-08T00:04:32.859Z,30.08
2023-02-08T00:06:59.484Z,30.75
2023-02-08T00:09:26.108Z,32.45
2023-02-08T00:11:52.856Z,31.20
2023-02-08T00:14:19.440Z,30.52
2023-02-08T00:16:46.090Z,30.83
2023-02-08T00:19:12.990Z,31.55
2023-02-08T00:21:42.672Z,31.15
2023-02-08T00:24:09.434Z,32.92
2023-02-08T00:26:36.228Z,32.15
2023-02-08T00:29:03.706Z,33.70
2023-02-08T00:31:30.516Z,34.45
2023-02-08T00:33:57.248Z,33.88
2023-02-08T00:36:23.998Z,34.80
2023-02-08T00:38:50.815Z,32.63
2023-02-08T00:41:17.493Z,34.28
2023-02-08T00:43:44.247Z,33.53
2023-02-08T00:46:11.200Z,35.08
2023-02-08T00:48:38.112Z,35.38
2023-02-08T00:51:10.615Z,34.75
2023-02-08T00:53:44.501Z,34.70
2023-02-08T00:56:15.086Z,33.95
2023-02-08T00:58:44.693Z,39.40
2023-02-08T01:01:12.349Z,38.35
2023-02-08T01:03:42.876Z,35.83
2023-02-08T01:06:15.202Z,35.85
2023-02-08T01:08:42.266Z,35.83
2023-02-08T01:11:22.209Z,36.97
2023-02-08T01:13:50.011Z,35.53
2023-02-08T01:16:28.902Z,35.17
2023-02-08T01:19:03.432Z,35.10
2023-02-08T01:21:37.310Z,37.55
2023-02-08T01:24:05.411Z,37.13
2023-02-08T01:26:36.597Z,38.30
2023-02-08T01:29:05.127Z,39.97
2023-02-08T01:31:42.861Z,39.60
2023-02-08T01:34:12.078Z,39.78
2023-02-08T01:36:41.214Z,37.13
2023-02-08T01:39:11.033Z,40.08
2023-02-08T01:41:44.239Z,41.78
2023-02-08T01:44:13.768Z,37.80
2023-02-08T01:47:03.685Z,37.92
2023-02-08T01:49:38.172Z,38.67
2023-02-08T01:52:23.671Z,37.45
2023-02-08T01:55:05.927Z,36.85
2023-02-08T01:57:33.116Z,36.55
2023-02-08T02:00:22.265Z,35.72
2023-02-08T02:02:54.960Z,34.80
2023-02-08T02:05:29.983Z,36.97
2023-02-08T02:07:58.750Z,36.35
2023-02-08T02:10:36.631Z,36.38
2023-02-08T02:13:12.659Z,37.13
2023-02-08T02:15:42.326Z,36.67
2023-02-08T02:18:10.632Z,35.97
2023-02-08T02:21:16.623Z,34.35
2023-02-08T02:24:33.267Z,36.72
2023-02-08T02:27:57.006Z,34.80
2023-02-08T02:31:00.212Z,34.55
2023-02-08T02:34:04.352Z,35.15
2023-02-08T02:37:20.738Z,33.70
2023-02-08T02:40:21.182Z,35.92
2023-02-08T02:43:37.582Z,35.05
2023-02-08T02:46:43.984Z,37.78
2023-02-08T02:49:37.831Z,36.92
2023-02-08T02:52:41.791Z,36.28
2023-02-08T02:55:20.169Z,37.92
2023-02-08T02:57:53.421Z,39.63
2023-02-08T03:00:27.761Z,38.17
2023-02-08T03:02:55.640Z,41.40
2023-02-08T03:05:31.436Z,40.30
2023-02-08T03:08:30.893Z,39.70
2023-02-08T03:11:27.849Z,39.10
2023-02-08T03:14:52.680Z,40.10
2023-02-08T03:17:59.522Z,39.20
2023-02-08T03:20:38.788Z,37.42
2023-02-08T03:23:25.384Z,36.40
2023-02-08T03:26:35.129Z,39.58
2023-02-08T03:29:21.709Z,36.92
2023-02-08T03:32:11.054Z,35.50
2023-02-08T03:35:02.881Z,39.40
2023-02-08T03:38:05.595Z,34.67
2023-02-08T03:40:50.787Z,38.20
2023-02-08T03:43:33.206Z,34.17
2023-02-08T03:46:20.993Z,36.42
2023-02-08T03:49:02.496Z,28.42
2023-02-08T03:51:34.302Z,34.33
2023-02-08T03:54:12.947Z,36.65
2023-02-08T03:57:09.090Z,34.08
2023-02-08T03:59:54.189Z,32.40
2023-02-08T04:02:32.721Z,34.20
2023-02-08T04:05:02.690Z,34.60
2023-02-08T04:07:29.397Z,35.47
2023-02-08T04:09:57.286Z,34.85
2023-02-08T04:12:24.029Z,33.80
2023-02-08T04:14:50.753Z,33.75
2023-02-08T04:17:17.446Z,32.83
2023-02-08T04:19:46.986Z,31.15
2023-02-08T04:22:13.719Z,32.38
2023-02-08T04:25:03.703Z,33.38
2023-02-08T04:27:30.374Z,32.53
2023-02-08T04:29:59.787Z,32.75
2023-02-08T04:32:28.997Z,30.35
2023-02-08T04:34:55.806Z,32.17
2023-02-08T04:37:25.688Z,32.35
2023-02-08T04:39:52.336Z,31.73
2023-02-08T04:42:19.293Z,29.67
2023-02-08T04:44:46.089Z,30.05
2023-02-08T04:47:12.851Z,29.95
2023-02-08T04:49:45.615Z,30.13
2023-02-08T04:52:12.533Z,31.42
2023-02-08T04:54:43.962Z,26.90
2023-02-08T04:57:14.917Z,30.65
2023-02-08T04:59:44.871Z,32.20
2023-02-08T05:02:14.606Z,29.10
2023-02-08T05:04:47.439Z,29.73
2023-02-08T05:07:14.115Z,29.38
2023-02-08T05:09:43.892Z,29.58
2023-02-08T05:12:10.601Z,30.63
2023-02-08T05:14:37.507Z,30.92
2023-02-08T05:17:04.228Z,29.38
2023-02-08T05:19:34.086Z,29.08
2023-02-08T05:22:00.876Z,29.42
2023-02-08T05:24:27.509Z,28.95
2023-02-08T05:26:54.330Z,29.17
2023-02-08T05:29:20.969Z,29.23
2023-02-08T05:31:49.009Z,28.58
2023-02-08T05:34:15.710Z,28.20
2023-02-08T05:36:43.751Z,27.35
2023-02-08T05:39:10.317Z,28.13
2023-02-08T05:41:36.986Z,28.45
2023-02-08T05:44:03.750Z,26.80
2023-02-08T05:46:30.619Z,27.33
2023-02-08T05:48:57.666Z,29.17
2023-02-08T05:51:24.440Z,29.50
2023-02-08T05:53:51.185Z,27.05
2023-02-08T05:56:17.830Z,30.08
2023-02-08T05:58:44.578Z,29.33
2023-02-08T06:01:13.756Z,31.13
2023-02-08T06:03:58.270Z,29.83
2023-02-08T06:08:52.932Z,27.60
2023-02-08T06:11:19.656Z,29.67
2023-02-08T06:13:48.715Z,29.95
2023-02-08T06:32:31.747Z,32.63
2023-02-08T06:45:51.780Z,30.08
2023-02-08T06:48:18.576Z,28.98
2023-02-08T06:50:51.587Z,31.42
2023-02-08T06:53:18.362Z,31.63
2023-02-08T08:09:07.866Z,33.63
2023-02-08T08:11:37.680Z,31.92
2023-02-08T08:14:04.429Z,31.55
2023-02-08T08:16:31.181Z,29.77
2023-02-08T08:18:58.061Z,29.95
2023-02-08T08:21:24.966Z,28.17
2023-02-08T08:23:52.055Z,23.70
2023-02-08T08:29:04.654Z,23.27
2023-02-08T08:31:31.434Z,22.67
2023-02-08T08:33:58.320Z,24.52
2023-02-08T08:36:25.117Z,23.20
2023-02-08T08:38:52.225Z,21.88
2023-02-08T08:41:19.046Z,21.27
2023-02-08T08:43:51.817Z,22.20
2023-02-08T08:46:19.032Z,22.83
2023-02-08T08:48:54.408Z,21.60
2023-02-08T08:51:21.155Z,21.15
2023-02-08T08:53:50.393Z,21.27
2023-02-08T08:56:17.397Z,23.95
2023-02-08T08:58:53.308Z,19.70
2023-02-08T09:01:20.225Z,20.83
2023-02-08T09:03:50.261Z,21.90
2023-02-08T09:06:17.450Z,19.60
2023-02-08T09:08:44.247Z,22.08
2023-02-08T09:11:17.271Z,21.50
2023-02-08T09:13:56.053Z,21.73
2023-02-08T09:16:27.639Z,19.83
2023-02-08T09:18:54.315Z,20.33
2023-02-08T09:21:27.038Z,22.83
2023-02-08T09:23:54.293Z,21.88
2023-02-08T09:26:22.646Z,20.80
2023-02-08T09:28:53.235Z,20.33
2023-02-08T09:31:24.562Z,21.88
2023-02-08T09:33:55.250Z,19.90
2023-02-08T09:36:27.248Z,20.98
2023-02-08T09:39:13.405Z,19.73
2023-02-08T09:42:23.105Z,19.83
2023-02-08T09:45:41.334Z,19.73
2023-02-08T09:48:38.363Z,21.52
2023-02-08T09:51:43.431Z,20.85
2023-02-08T09:54:33.453Z,20.67
2023-02-08T09:57:11.056Z,19.70
2023-02-08T09:59:57.098Z,21.35
2023-02-08T10:02:32.793Z,20.10
2023-02-08T10:05:29.884Z,19.30
2023-02-08T10:08:01.682Z,20.83
2023-02-08T10:10:53.910Z,20.10
2023-02-08T10:13:53.901Z,19.20
2023-02-08T10:16:54.240Z,18.73
2023-02-08T10:20:08.544Z,17.67
2023-02-08T10:23:25.754Z,17.27
2023-02-08T10:26:28.838Z,18.45
2023-02-08T10:30:08.729Z,18.70
2023-02-08T10:33:11.584Z,17.65
2023-02-08T10:35:57.580Z,18.35
2023-02-08T10:38:54.010Z,17.48
2023-02-08T10:41:36.333Z,18.95
2023-02-08T10:44:39.926Z,18.88
2023-02-08T10:47:56.397Z,16.10
2023-02-08T10:50:43.566Z,18.42
2023-02-08T10:53:17.571Z,19.50
2023-02-08T10:55:50.525Z,17.15
2023-02-08T10:58:25.369Z,17.65
2023-02-08T11:00:57.613Z,17.88
2023-02-08T11:03:29.286Z,16.67
2023-02-08T11:05:57.039Z,19.30
2023-02-08T11:08:29.992Z,17.48
2023-02-08T11:11:08.900Z,15.38
2023-02-08T11:13:44.495Z,17.67
2023-02-08T11:16:23.225Z,17.48
2023-02-08T11:19:07.755Z,16.85
2023-02-08T11:24:57.295Z,18.23
2023-02-08T11:27:42.018Z,16.77
2023-02-08T11:30:17.508Z,16.60
2023-02-08T11:33:29.810Z,16.48
2023-02-08T11:36:08.406Z,16.50
2023-02-08T11:38:42.553Z,16.33
2023-02-08T11:41:20.456Z,15.30
2023-02-08T11:44:08.533Z,14.73
2023-02-08T11:46:37.403Z,17.00
2023-02-08T11:49:04.702Z,18.30
2023-02-08T11:51:37.531Z,16.73
2023-02-08T11:54:06.398Z,16.17
2023-02-08T11:56:35.188Z,15.60
2023-02-08T11:59:21.261Z,16.35
2023-02-08T12:01:55.184Z,15.95
2023-02-08T12:04:22.223Z,12.95
2023-02-08T12:07:45.853Z,16.52
2023-02-08T12:11:03.403Z,16.38
2023-02-08T12:14:33.143Z,15.23
2023-02-08T12:18:02.508Z,16.02
2023-02-08T12:20:45.332Z,15.00
2023-02-08T12:23:29.063Z,16.10
2023-02-08T12:26:27.443Z,15.57
2023-02-08T12:29:22.462Z,16.13
2023-02-08T12:35:39.937Z,14.40
2023-02-08T12:52:42.443Z,13.77
2023-02-08T13:22:26.196Z,13.55
2023-02-08T13:25:07.171Z,12.52
2023-02-08T13:27:38.639Z,12.25
2023-02-08T13:30:16.198Z,12.45
2023-02-08T13:38:32.818Z,12.88
2023-02-08T13:47:05.565Z,12.82
2023-02-08T13:50:43.016Z,12.05
2023-02-08T13:53:11.044Z,12.57
2023-02-08T13:56:01.892Z,11.20
2023-02-08T13:59:01.207Z,11.10
2023-02-08T14:01:36.369Z,10.80
2023-02-08T14:04:11.772Z,11.93
2023-02-08T14:07:14.041Z,10.73
2023-02-08T14:10:09.847Z,9.85
2023-02-08T14:13:22.732Z,10.15
2023-02-08T14:16:32.302Z,10.27
2023-02-08T14:19:15.338Z,10.68
2023-02-08T14:22:03.893Z,10.57
2023-02-08T14:24:43.956Z,11.40
2023-02-08T14:27:44.495Z,10.30
2023-02-08T14:30:17.183Z,11.60
2023-02-08T14:33:04.808Z,12.05
2023-02-08T14:35:37.595Z,11.77
2023-02-08T14:38:19.571Z,11.57
2023-02-08T14:41:04.254Z,11.30
2023-02-08T14:46:38.827Z,11.20
2023-02-08T14:49:19.257Z,11.27
2023-02-08T14:52:12.129Z,10.48
2023-02-08T14:55:14.152Z,10.82
2023-02-08T14:57:44.544Z,10.70
2023-02-08T15:00:36.138Z,10.05
2023-02-08T15:03:18.475Z,12.20
2023-02-08T15:06:30.098Z,11.57
2023-02-08T15:08:58.110Z,11.43
2023-02-08T15:11:34.235Z,11.55
2023-02-08T15:14:07.462Z,10.77
2023-02-08T15:16:43.405Z,11.38
2023-02-08T15:19:41.495Z,10.27
2023-02-08T15:22:26.467Z,10.77
2023-02-08T15:25:24.117Z,11.55
2023-02-08T15:28:00.881Z,11.48
2023-02-08T15:30:43.299Z,11.25
2023-02-08T15:33:17.781Z,10.82
2023-02-08T15:36:07.290Z,11.38
2023-02-08T15:38:38.723Z,11.02
2023-02-08T15:41:12.242Z,12.23
2023-02-08T15:43:46.307Z,11.52
2023-02-08T15:46:29.888Z,11.60
2023-02-08T15:49:03.281Z,11.68
2023-02-08T15:51:31.764Z,11.97
2023-02-08T15:53:58.752Z,12.20
2023-02-08T15:56:41.295Z,12.05
2023-02-08T15:59:24.712Z,13.30
2023-02-08T16:01:57.792Z,12.93
2023-02-08T16:04:26.202Z,12.43
2023-02-08T16:07:00.639Z,12.57
2023-02-08T16:09:30.202Z,12.18
2023-02-08T16:38:10.263Z,13.50
2023-02-08T16:40:53.641Z,17.98
2023-02-08T16:43:32.813Z,15.60
2023-02-08T16:46:11.835Z,13.63
2023-02-08T16:48:52.121Z,23.88
2023-02-08T16:51:34.140Z,16.10
2023-02-08T16:54:11.301Z,19.58
2023-02-08T16:56:41.330Z,39.92
2023-02-08T16:59:10.598Z,19.05
2023-02-08T17:01:38.148Z,16.90
2023-02-08T17:04:06.414Z,19.15
2023-02-08T17:06:43.355Z,17.55
2023-02-08T17:09:13.644Z,18.40
2023-02-08T17:11:45.181Z,17.98
2023-02-08T17:14:11.922Z,17.27
2023-02-08T17:16:44.339Z,21.40
2023-02-08T17:19:22.481Z,23.60
2023-02-08T17:24:37.711Z,18.57
2023-02-08T17:27:05.659Z,18.48
2023-02-08T17:29:32.433Z,16.15
2023-02-08T17:32:02.191Z,19.60
2023-02-08T17:34:29.149Z,18.27
2023-02-08T17:36:55.749Z,18.67
2023-02-08T17:39:22.549Z,18.55
2023-02-08T17:41:55.384Z,18.98
2023-02-08T17:44:22.006Z,19.08
2023-02-08T17:46:51.769Z,17.55
2023-02-08T17:49:18.477Z,17.95
2023-02-08T17:51:45.261Z,18.90
2023-02-08T18:13:09.378Z,18.27
2023-02-08T18:48:06.293Z,19.60
2023-02-08T18:50:32.910Z,20.42
2023-02-08T18:52:59.980Z,20.40
2023-02-08T18:55:26.672Z,19.23
2023-02-08T18:57:53.583Z,21.55
2023-02-08T19:00:20.677Z,19.63
2023-02-08T19:05:30.111Z,19.88
2023-02-08T19:24:22.001Z,20.20
2023-02-08T19:26:51.759Z,20.95
2023-02-08T19:45:35.913Z,22.65
2023-02-08T19:48:03.085Z,23.25
2023-02-08T20:06:58.009Z,24.88
2023-02-08T20:09:24.635Z,24.48
2023-02-08T20:17:15.204Z,25.70
2023-02-08T20:30:29.056Z,26.00
2023-02-08T20:43:55.933Z,25.88
2023-02-08T20:46:34.628Z,26.48
2023-02-08T20:54:27.362Z,25.50
2023-02-08T21:15:52.426Z,24.88
2023-02-08T21:18:19.063Z,25.63
2023-02-08T21:20:46.159Z,25.13
2023-02-08T21:23:13.471Z,26.15
2023-02-08T21:25:46.231Z,26.00
2023-02-08T21:28:14.307Z,25.27
2023-02-08T21:31:10.336Z,26.90
2023-02-08T21:33:37.130Z,27.83
2023-02-08T21:36:12.116Z,24.63
2023-02-08T21:38:38.802Z,25.92
2023-02-08T21:41:25.276Z,26.80
2023-02-08T21:43:57.382Z,23.88
2023-02-08T21:46:28.423Z,24.52
2023-02-08T21:49:16.434Z,24.58
2023-02-08T21:52:03.223Z,24.48
2023-02-08T21:54:45.430Z,25.08
2023-02-08T21:57:21.600Z,25.67
2023-02-08T21:59:58.546Z,25.83
2023-02-08T22:02:30.405Z,26.95
2023-02-08T22:05:22.261Z,25.70
2023-02-08T22:07:57.278Z,25.05
2023-02-08T22:10:32.101Z,24.20
2023-02-08T22:12:59.690Z,27.35
2023-02-08T22:15:34.185Z,23.35
2023-02-08T22:18:03.387Z,25.77
2023-02-08T22:20:31.068Z,22.60
2023-02-08T22:22:57.898Z,27.15
2023-02-08T22:25:24.653Z,25.38
2023-02-08T22:27:51.730Z,24.00
2023-02-08T22:30:20.007Z,25.13
2023-02-08T22:32:51.870Z,25.27
2023-02-08T22:35:20.106Z,26.40
2023-02-08T22:37:46.876Z,24.02
2023-02-08T22:40:13.536Z,25.95
2023-02-08T22:42:44.042Z,25.02
2023-02-08T22:45:17.127Z,25.45
2023-02-08T22:47:57.369Z,24.27
2023-02-08T22:50:24.018Z,25.48
2023-02-08T22:52:50.744Z,25.75
2023-02-08T22:55:17.402Z,24.95
2023-02-08T22:57:44.225Z,26.60
2023-02-08T23:00:15.999Z,19.60
2023-02-08T23:02:43.265Z,28.35
2023-02-08T23:05:15.902Z,25.58
2023-02-08T23:07:47.457Z,25.58
2023-02-08T23:10:23.113Z,27.30
2023-02-08T23:12:50.095Z,25.38
2023-02-08T23:15:17.042Z,25.92
2023-02-08T23:17:43.862Z,26.10
2023-02-08T23:20:17.042Z,26.23
2023-02-08T23:22:46.646Z,25.08
2023-02-08T23:25:16.446Z,28.17
2023-02-08T23:27:43.520Z,27.00
2023-02-08T23:30:13.560Z,28.65
2023-02-08T23:32:43.726Z,27.63
2023-02-08T23:35:13.182Z,25.70
2023-02-08T23:37:43.560Z,27.35
2023-02-08T23:40:16.868Z,28.00
2023-02-08T23:42:43.648Z,27.00
2023-02-08T23:45:13.858Z,27.70
2023-02-08T23:47:45.872Z,27.38
2023-02-08T23:50:12.596Z,28.80
2023-02-08T23:52:44.459Z,27.30
2023-02-08T23:55:12.728Z,25.77
2023-02-08T23:57:42.017Z,27.45
